createdAt,value
2023-01-18T00:01:22.339Z,12.10
2023-01-18T00:03:51.203Z,10.30
2023-01-18T00:06:19.517Z,8.80
2023-01-18T00:08:47.826Z,7.70
2023-01-18T00:11:18.541Z,8.20
2023-01-18T00:13:48.029Z,9.50
2023-01-18T00:16:19.476Z,8.00
2023-01-18T00:18:56.233Z,8.30
2023-01-18T00:21:26.519Z,6.70
2023-01-18T00:23:56.452Z,6.50
2023-01-18T00:26:24.627Z,6.80
2023-01-18T00:28:55.742Z,8.70
2023-01-18T00:31:24.214Z,7.30
2023-01-18T00:33:52.618Z,8.00
2023-01-18T00:36:21.613Z,7.10
2023-01-18T00:38:54.220Z,6.30
2023-01-18T00:41:23.082Z,6.50
2023-01-18T00:43:52.388Z,7.80
2023-01-18T00:46:27.448Z,7.00
2023-01-18T00:48:57.451Z,5.90
2023-01-18T00:51:26.071Z,5.60
2023-01-18T00:53:54.232Z,5.90
2023-01-18T00:56:23.409Z,5.80
2023-01-18T00:58:51.581Z,3.60
2023-01-18T01:01:20.566Z,5.30
2023-01-18T01:04:07.567Z,5.90
2023-01-18T01:06:46.636Z,5.50
2023-01-18T01:09:25.384Z,5.70
2023-01-18T01:12:13.019Z,5.50
2023-01-18T01:15:03.681Z,4.70
2023-01-18T01:17:52.446Z,5.20
2023-01-18T01:20:40.461Z,5.10
2023-01-18T01:23:38.432Z,5.40
2023-01-18T01:26:08.798Z,5.10
2023-01-18T01:28:39.288Z,5.20
2023-01-18T01:31:10.292Z,4.70
2023-01-18T01:33:39.414Z,5.10
2023-01-18T01:36:13.834Z,4.50
2023-01-18T01:38:42.431Z,4.80
2023-01-18T01:41:20.672Z,5.70
2023-01-18T01:43:54.834Z,5.90
2023-01-18T01:46:41.725Z,5.30
2023-01-18T01:49:17.590Z,5.50
2023-01-18T01:51:58.223Z,4.30
2023-01-18T01:55:01.876Z,4.30
2023-01-18T01:58:02.845Z,4.70
2023-01-18T02:00:31.753Z,3.70
2023-01-18T02:03:06.371Z,4.90
2023-01-18T02:05:42.709Z,3.60
2023-01-18T02:08:13.773Z,3.60
2023-01-18T02:10:42.019Z,4.20
2023-01-18T02:13:11.371Z,4.70
2023-01-18T02:16:07.043Z,3.70
2023-01-18T02:18:50.713Z,3.40
2023-01-18T02:21:26.943Z,4.60
2023-01-18T02:24:01.404Z,5.80
2023-01-18T02:27:00.699Z,3.70
2023-01-18T02:29:41.141Z,3.30
2023-01-18T02:32:29.678Z,3.40
2023-01-18T02:35:11.180Z,2.60
2023-01-18T02:37:48.434Z,2.90
2023-01-18T02:40:39.918Z,2.60
2023-01-18T02:43:30.296Z,2.80
2023-01-18T02:46:18.780Z,3.10
2023-01-18T02:48:48.955Z,3.10
2023-01-18T02:51:17.349Z,2.70
2023-01-18T02:53:47.779Z,4.70
2023-01-18T02:56:17.557Z,3.00
2023-01-18T02:58:51.322Z,3.10
2023-01-18T03:01:22.523Z,3.00
2023-01-18T03:03:55.264Z,3.30
2023-01-18T03:06:27.949Z,3.30
2023-01-18T03:08:58.596Z,2.70
2023-01-18T03:11:32.642Z,3.30
2023-01-18T03:14:29.323Z,3.40
2023-01-18T03:17:11.439Z,2.40
2023-01-18T03:19:58.413Z,2.90
2023-01-18T03:22:48.271Z,3.30
2023-01-18T03:25:20.658Z,3.30
2023-01-18T03:28:10.386Z,3.10
2023-01-18T03:30:59.757Z,3.60
2023-01-18T03:33:47.799Z,3.60
2023-01-18T03:36:41.564Z,3.40
2023-01-18T03:39:16.068Z,4.80
2023-01-18T03:41:49.134Z,3.70
2023-01-18T03:44:29.613Z,3.00
2023-01-18T03:46:58.076Z,3.50
2023-01-18T03:49:27.662Z,4.00
2023-01-18T03:52:29.683Z,3.90
2023-01-18T03:55:07.931Z,3.50
2023-01-18T03:57:43.756Z,3.40
2023-01-18T04:00:14.402Z,3.70
2023-01-18T04:02:47.442Z,3.80
2023-01-18T04:05:17.335Z,3.50
2023-01-18T04:07:45.642Z,4.60
2023-01-18T04:10:14.068Z,3.90
2023-01-18T04:12:43.473Z,3.70
2023-01-18T04:15:11.973Z,3.90
2023-01-18T04:17:41.400Z,3.90
2023-01-18T04:20:11.505Z,3.80
2023-01-18T04:22:45.767Z,3.50
2023-01-18T04:25:13.986Z,4.30
2023-01-18T04:27:42.303Z,4.10
2023-01-18T04:30:11.169Z,3.90
2023-01-18T04:32:40.227Z,4.50
2023-01-18T04:35:15.563Z,4.30
2023-01-18T04:37:43.992Z,4.20
2023-01-18T04:40:13.050Z,4.50
2023-01-18T04:42:41.279Z,4.50
2023-01-18T04:45:14.263Z,4.00
2023-01-18T04:47:42.972Z,4.00
2023-01-18T04:50:12.260Z,5.00
2023-01-18T04:52:40.589Z,4.30
2023-01-18T04:55:15.648Z,4.50
2023-01-18T04:57:54.490Z,4.80
2023-01-18T05:00:24.355Z,4.50
2023-01-18T05:02:53.796Z,3.90
2023-01-18T05:05:22.482Z,4.50
2023-01-18T05:07:53.623Z,4.40
2023-01-18T05:10:21.786Z,4.30
2023-01-18T05:12:50.082Z,4.60
2023-01-18T05:15:18.489Z,4.30
2023-01-18T05:17:46.748Z,3.70
2023-01-18T05:20:19.716Z,3.90
2023-01-18T05:22:47.904Z,4.30
2023-01-18T05:25:16.308Z,4.30
2023-01-18T05:27:46.581Z,4.50
2023-01-18T05:30:21.158Z,4.70
2023-01-18T05:32:49.389Z,4.20
2023-01-18T05:35:17.723Z,4.00
2023-01-18T05:37:52.243Z,5.30
2023-01-18T05:40:22.321Z,5.30
2023-01-18T05:42:53.215Z,5.10
2023-01-18T05:45:21.429Z,5.10
2023-01-18T05:47:52.540Z,4.40
2023-01-18T05:50:20.775Z,5.20
2023-01-18T05:52:48.934Z,4.90
2023-01-18T05:55:18.477Z,5.40
2023-01-18T05:57:52.763Z,5.50
2023-01-18T06:00:21.332Z,5.30
2023-01-18T06:02:56.682Z,5.20
2023-01-18T06:05:25.659Z,5.30
2023-01-18T06:07:54.052Z,4.30
2023-01-18T06:10:22.250Z,5.30
2023-01-18T06:12:50.644Z,5.30
2023-01-18T06:15:18.934Z,4.60
2023-01-18T06:17:47.336Z,4.60
2023-01-18T06:20:16.046Z,4.80
2023-01-18T06:22:45.741Z,4.80
2023-01-18T06:25:14.197Z,3.90
2023-01-18T06:27:42.396Z,4.50
2023-01-18T06:30:11.182Z,5.50
2023-01-18T06:32:39.337Z,5.40
2023-01-18T06:35:08.114Z,4.70
2023-01-18T06:37:36.339Z,5.80
2023-01-18T06:40:05.460Z,5.40
2023-01-18T06:42:33.777Z,5.50
2023-01-18T06:45:01.923Z,5.20
2023-01-18T06:47:30.359Z,5.70
2023-01-18T06:49:58.639Z,4.80
2023-01-18T06:52:26.915Z,4.40
2023-01-18T06:54:55.175Z,4.00
2023-01-18T06:57:24.112Z,4.50
2023-01-18T06:59:53.572Z,4.40
2023-01-18T07:02:21.897Z,4.70
2023-01-18T07:04:50.559Z,4.60
2023-01-18T07:07:18.956Z,4.10
2023-01-18T07:09:47.167Z,5.10
2023-01-18T07:12:15.484Z,3.70
2023-01-18T07:14:43.789Z,3.40
2023-01-18T07:17:12.128Z,4.10
2023-01-18T07:19:40.463Z,5.00
2023-01-18T07:22:08.827Z,4.00
2023-01-18T07:24:37.016Z,5.10
2023-01-18T07:27:05.236Z,3.70
2023-01-18T07:29:33.490Z,4.50
2023-01-18T07:32:02.741Z,4.10
2023-01-18T07:34:31.094Z,4.60
2023-01-18T07:36:59.386Z,4.20
2023-01-18T07:39:27.643Z,4.00
2023-01-18T07:41:56.013Z,4.90
2023-01-18T07:44:24.653Z,3.80
2023-01-18T07:46:52.938Z,3.90
2023-01-18T07:49:21.181Z,2.90
2023-01-18T07:51:49.416Z,3.90
2023-01-18T07:54:19.257Z,4.30
2023-01-18T07:56:47.532Z,4.00
2023-01-18T07:59:16.117Z,4.00
2023-01-18T08:01:44.424Z,4.20
2023-01-18T08:04:12.684Z,4.70
2023-01-18T08:06:40.943Z,4.00
2023-01-18T08:09:09.204Z,4.00
2023-01-18T08:11:37.428Z,4.70
2023-01-18T08:14:05.671Z,4.00
2023-01-18T08:16:33.910Z,4.00
2023-01-18T08:19:02.167Z,3.50
2023-01-18T08:21:32.041Z,3.20
2023-01-18T08:24:00.328Z,2.90
2023-01-18T08:26:28.531Z,4.20
2023-01-18T08:28:57.884Z,4.50
2023-01-18T08:31:27.070Z,3.30
2023-01-18T08:33:55.498Z,4.00
2023-01-18T08:36:25.618Z,3.30
2023-01-18T08:38:57.274Z,4.10
2023-01-18T08:41:30.676Z,4.20
2023-01-18T08:43:59.726Z,4.70
2023-01-18T08:46:28.666Z,5.30
2023-01-18T08:48:59.557Z,5.30
2023-01-18T08:51:28.056Z,5.10
2023-01-18T08:53:57.417Z,5.00
2023-01-18T08:56:26.225Z,4.70
2023-01-18T08:58:56.117Z,7.30
2023-01-18T09:01:25.101Z,4.60
2023-01-18T09:03:55.373Z,4.40
2023-01-18T09:06:24.308Z,4.10
2023-01-18T09:08:53.266Z,4.10
2023-01-18T09:11:21.480Z,3.20
2023-01-18T09:14:00.711Z,4.20
2023-01-18T09:16:31.277Z,3.80
2023-01-18T09:19:00.019Z,3.40
2023-01-18T09:21:29.397Z,3.30
2023-01-18T09:23:59.765Z,3.80
2023-01-18T09:26:30.624Z,2.70
2023-01-18T09:28:59.077Z,3.10
2023-01-18T09:31:29.132Z,3.00
2023-01-18T09:34:09.563Z,2.70
2023-01-18T09:36:46.901Z,3.20
2023-01-18T09:39:15.270Z,2.90
2023-01-18T09:41:49.769Z,2.70
2023-01-18T09:44:24.243Z,2.70
2023-01-18T09:47:00.438Z,3.80
2023-01-18T09:49:38.189Z,3.50
2023-01-18T09:52:44.093Z,2.40
2023-01-18T09:55:52.367Z,3.10
2023-01-18T09:58:53.800Z,2.80
2023-01-18T10:01:30.200Z,2.80
2023-01-18T10:04:01.028Z,2.70
2023-01-18T10:06:37.216Z,2.10
2023-01-18T10:09:15.746Z,3.10
2023-01-18T10:11:50.963Z,3.20
2023-01-18T10:14:43.897Z,2.80
2023-01-18T10:17:18.263Z,2.70
2023-01-18T10:19:47.659Z,3.00
2023-01-18T10:22:34.550Z,3.10
2023-01-18T10:25:24.313Z,3.50
2023-01-18T10:28:33.516Z,3.10
2023-01-18T10:31:32.050Z,2.00
2023-01-18T10:34:02.932Z,2.80
2023-01-18T10:36:41.895Z,3.20
2023-01-18T10:39:36.397Z,3.30
2023-01-18T10:42:17.634Z,2.80
2023-01-18T10:44:45.857Z,2.70
2023-01-18T10:47:17.984Z,2.20
2023-01-18T10:49:49.204Z,3.40
2023-01-18T10:52:26.376Z,2.50
2023-01-18T10:55:01.807Z,3.60
2023-01-18T10:57:34.576Z,2.80
2023-01-18T11:00:12.618Z,2.30
2023-01-18T11:02:45.157Z,2.70
2023-01-18T11:05:27.564Z,2.40
2023-01-18T11:08:17.624Z,3.50
2023-01-18T11:10:46.043Z,2.40
2023-01-18T11:13:35.714Z,3.00
2023-01-18T11:16:08.775Z,3.10
2023-01-18T11:18:37.149Z,2.40
2023-01-18T11:21:11.272Z,3.00
2023-01-18T11:23:43.029Z,2.40
2023-01-18T11:26:19.264Z,2.70
2023-01-18T11:29:00.879Z,2.20
2023-01-18T11:31:49.733Z,2.30
2023-01-18T11:34:29.989Z,2.50
2023-01-18T11:37:00.808Z,2.50
2023-01-18T11:39:33.502Z,2.70
2023-01-18T11:42:26.820Z,2.30
2023-01-18T11:45:04.513Z,2.00
2023-01-18T11:48:03.785Z,2.90
2023-01-18T11:50:46.024Z,3.20
2023-01-18T11:53:57.247Z,3.00
2023-01-18T11:56:35.067Z,3.40
2023-01-18T11:59:12.506Z,2.80
2023-01-18T12:01:55.650Z,3.00
2023-01-18T12:04:45.655Z,2.20
2023-01-18T12:07:16.748Z,2.30
2023-01-18T12:09:54.176Z,2.70
2023-01-18T12:12:52.877Z,3.00
2023-01-18T12:16:01.591Z,4.00
2023-01-18T12:18:59.158Z,2.90
2023-01-18T12:21:50.114Z,2.90
2023-01-18T12:24:35.029Z,2.90
2023-01-18T12:27:33.001Z,2.80
2023-01-18T12:30:14.211Z,2.40
2023-01-18T12:33:22.639Z,3.90
2023-01-18T12:36:01.805Z,2.10
2023-01-18T12:38:33.009Z,3.50
2023-01-18T12:41:17.829Z,3.00
2023-01-18T12:44:07.620Z,3.40
2023-01-18T12:47:01.234Z,3.70
2023-01-18T12:52:18.002Z,4.70
2023-01-18T12:55:02.053Z,4.00
2023-01-18T12:57:30.550Z,4.60
2023-01-18T13:00:19.156Z,3.60
2023-01-18T13:02:52.939Z,4.00
2023-01-18T13:05:37.141Z,3.70
2023-01-18T13:08:17.325Z,4.70
2023-01-18T13:10:47.026Z,3.60
2023-01-18T13:13:22.732Z,3.50
2023-01-18T13:15:59.164Z,2.60
2023-01-18T13:18:37.015Z,3.40
2023-01-18T13:21:32.524Z,4.00
2023-01-18T13:24:04.299Z,3.90
2023-01-18T13:26:34.746Z,3.60
2023-01-18T13:29:10.339Z,3.90
2023-01-18T13:31:38.810Z,3.00
2023-01-18T13:34:25.205Z,3.00
2023-01-18T13:37:02.487Z,3.80
2023-01-18T13:39:47.862Z,3.40
2023-01-18T13:42:22.308Z,3.30
2023-01-18T13:45:14.373Z,4.00
2023-01-18T13:47:50.078Z,4.30
2023-01-18T13:50:39.665Z,3.30
2023-01-18T13:53:18.006Z,2.90
2023-01-18T13:55:55.458Z,3.10
2023-01-18T13:58:31.603Z,4.60
2023-01-18T14:01:05.215Z,2.90
2023-01-18T14:03:33.527Z,3.40
2023-01-18T14:06:15.216Z,4.50
2023-01-18T14:08:52.950Z,3.40
2023-01-18T14:11:27.854Z,3.30
2023-01-18T14:13:59.504Z,3.70
2023-01-18T14:16:34.676Z,4.20
2023-01-18T14:19:19.877Z,3.90
2023-01-18T14:22:07.524Z,4.50
2023-01-18T14:24:45.250Z,4.50
2023-01-18T14:27:47.205Z,4.00
2023-01-18T14:30:34.568Z,3.90
2023-01-18T14:33:26.630Z,3.70
2023-01-18T14:36:01.189Z,4.40
2023-01-18T14:38:31.449Z,3.80
2023-01-18T14:41:08.259Z,4.00
